Time;durP1;ratioP1;P1;durP2;ratioP2;P2;SDS_P1;SDS_P2;PMS_P1;PMS_P2;Temp;Humidity;BMP_temperature;BMP_pressure;BME280_temperature;BME280_humidity;BME280_pressure;Samples;Min_cycle;Max_cycle;Signal;HPM_P1;HPM_P2
2021/09/17 00:01:04;;;;;;;3.40;1.65;;;20.00;67.70;;;;;;4997053;28;20041;-60
2021/09/17 00:03:30;;;;;;;4.03;1.73;;;20.00;67.60;;;;;;4995725;28;20036;-60
2021/09/17 00:05:55;;;;;;;3.75;1.90;;;20.00;67.70;;;;;;4996900;28;20033;-59
2021/09/17 00:08:22;;;;;;;3.00;1.67;;;20.00;67.70;;;;;;4996816;28;20031;-59
2021/09/17 00:10:47;;;;;;;3.55;1.60;;;19.90;67.70;;;;;;4996762;28;20529;-61
2021/09/17 00:13:13;;;;;;;4.00;1.63;;;19.90;67.70;;;;;;4996828;28;20110;-61
2021/09/17 00:15:39;;;;;;;3.88;1.65;;;19.90;67.70;;;;;;4996570;28;20039;-60
2021/09/17 00:18:04;;;;;;;3.63;1.60;;;19.90;67.70;;;;;;4996513;28;20038;-61
2021/09/17 00:20:30;;;;;;;3.53;1.73;;;19.90;67.70;;;;;;4996524;28;20030;-60
2021/09/17 00:22:55;;;;;;;3.53;1.70;;;19.90;67.70;;;;;;4996453;28;20026;-61
2021/09/17 00:25:21;;;;;;;3.50;1.50;;;19.90;67.70;;;;;;4995532;28;20105;-60
2021/09/17 00:27:46;;;;;;;4.70;1.80;;;19.90;67.70;;;;;;4996586;28;20026;-61
2021/09/17 00:30:12;;;;;;;3.95;1.83;;;19.90;67.70;;;;;;4996353;28;20023;-61
2021/09/17 00:32:38;;;;;;;2.85;1.75;;;19.90;67.70;;;;;;4996330;28;20113;-60
2021/09/17 00:35:04;;;;;;;4.05;1.73;;;19.90;67.70;;;;;;4996224;28;20053;-60
2021/09/17 00:37:29;;;;;;;3.67;1.63;;;19.90;67.60;;;;;;4996133;28;20132;-61
2021/09/17 00:39:55;;;;;;;4.35;1.75;;;19.90;67.70;;;;;;4996209;28;20477;-60
2021/09/17 00:42:21;;;;;;;4.18;1.65;;;19.80;67.70;;;;;;4995017;28;20026;-60
2021/09/17 00:44:46;;;;;;;3.00;1.63;;;19.80;67.70;;;;;;4996203;28;20062;-61
2021/09/17 00:47:12;;;;;;;3.42;1.60;;;19.90;67.70;;;;;;4995875;28;20406;-59
2021/09/17 00:49:37;;;;;;;2.95;1.58;;;19.90;67.70;;;;;;4994770;28;20470;-61
2021/09/17 00:52:03;;;;;;;3.08;1.65;;;19.90;67.70;;;;;;4995993;28;20038;-60
2021/09/17 00:54:34;;;;;;;3.58;1.45;;;19.80;67.70;;;;;;4995070;28;20022;-60
2021/09/17 00:57:00;;;;;;;2.70;1.45;;;19.80;67.70;;;;;;4997033;28;20129;-60
2021/09/17 00:59:25;;;;;;;3.92;1.73;;;19.80;67.70;;;;;;4996923;28;20073;-60
2021/09/17 01:01:51;;;;;;;3.08;1.70;;;19.80;67.70;;;;;;4996738;28;20031;-59
2021/09/17 01:04:17;;;;;;;2.72;1.45;;;19.80;67.70;;;;;;4995998;28;20023;-59
2021/09/17 01:06:43;;;;;;;4.57;1.83;;;19.80;67.70;;;;;;4994626;28;20470;-59
2021/09/17 01:09:08;;;;;;;4.07;1.55;;;19.80;67.70;;;;;;4995893;28;20018;-59
2021/09/17 01:11:34;;;;;;;3.72;1.70;;;19.80;67.70;;;;;;4995652;28;20022;-59
2021/09/17 01:14:01;;;;;;;4.03;1.60;;;19.80;67.70;;;;;;4995571;28;20034;-60
2021/09/17 01:16:27;;;;;;;3.65;1.58;;;19.80;67.70;;;;;;4995492;28;20034;-60
2021/09/17 01:18:54;;;;;;;4.28;1.88;;;19.80;67.70;;;;;;4995655;28;20466;-60
2021/09/17 01:21:21;;;;;;;4.70;1.95;;;19.90;67.70;;;;;;4994148;28;20030;-61
2021/09/17 01:23:47;;;;;;;3.35;1.73;;;19.80;67.70;;;;;;4995333;28;20018;-59
2021/09/17 01:26:12;;;;;;;3.03;1.55;;;19.80;67.70;;;;;;4993951;28;20023;-60
2021/09/17 01:28:38;;;;;;;3.80;1.83;;;19.80;67.70;;;;;;4995311;28;20026;-59
2021/09/17 01:31:03;;;;;;;4.55;1.88;;;19.80;67.70;;;;;;4995143;28;20030;-59
2021/09/17 01:33:29;;;;;;;3.55;1.70;;;19.80;67.70;;;;;;4995184;28;20034;-59
2021/09/17 01:35:57;;;;;;;2.90;1.55;;;19.80;67.60;;;;;;4993854;28;20035;-60
2021/09/17 01:38:24;;;;;;;2.92;1.65;;;19.80;67.70;;;;;;4995149;28;20034;-59
2021/09/17 01:40:50;;;;;;;4.00;1.88;;;19.80;67.70;;;;;;4995089;28;20034;-61
2021/09/17 01:43:15;;;;;;;2.85;1.48;;;19.80;67.70;;;;;;4993759;28;20031;-59
2021/09/17 01:45:41;;;;;;;2.50;1.42;;;19.80;67.60;;;;;;4994937;28;20160;-60
2021/09/17 01:48:07;;;;;;;3.35;1.80;;;19.80;67.70;;;;;;4994807;28;20166;-61
2021/09/17 01:50:32;;;;;;;3.85;1.58;;;19.80;67.70;;;;;;4994912;28;20023;-61
2021/09/17 01:52:58;;;;;;;3.30;1.50;;;19.70;67.70;;;;;;4995101;28;20116;-62
2021/09/17 01:55:24;;;;;;;3.13;1.67;;;19.80;67.70;;;;;;4994732;28;20024;-60
2021/09/17 01:57:53;;;;;;;3.80;1.85;;;19.80;67.70;;;;;;4994997;28;20057;-61
2021/09/17 02:00:19;;;;;;;4.13;1.75;;;19.70;67.60;;;;;;4993403;28;20054;-60
2021/09/17 02:02:44;;;;;;;3.28;1.67;;;19.80;67.70;;;;;;4994677;28;20116;-60
2021/09/17 02:05:10;;;;;;;3.85;1.90;;;19.70;67.70;;;;;;4994818;28;20554;-61
2021/09/17 02:07:36;;;;;;;3.05;1.30;;;19.70;67.70;;;;;;4993313;28;20033;-61
2021/09/17 02:10:02;;;;;;;2.88;1.60;;;19.70;67.70;;;;;;4994751;28;20026;-60
2021/09/17 02:12:28;;;;;;;2.63;1.45;;;19.70;67.70;;;;;;4994447;28;20026;-61
2021/09/17 02:14:53;;;;;;;3.25;1.60;;;19.80;67.70;;;;;;4994364;28;20426;-60
2021/09/17 02:17:21;;;;;;;4.22;1.63;;;19.70;67.70;;;;;;4994601;28;20042;-61
2021/09/17 02:19:48;;;;;;;3.90;1.77;;;19.70;67.70;;;;;;4993999;28;20398;-62
2021/09/17 02:22:13;;;;;;;4.47;1.92;;;19.70;67.70;;;;;;4994396;28;20027;-61
2021/09/17 02:24:39;;;;;;;3.47;1.85;;;19.70;67.70;;;;;;4994260;28;20037;-60
2021/09/17 02:27:04;;;;;;;4.20;1.90;;;19.70;67.70;;;;;;4994204;28;20035;-60
2021/09/17 02:29:30;;;;;;;4.22;1.63;;;19.70;67.60;;;;;;4994047;28;20101;-59
2021/09/17 02:31:56;;;;;;;5.28;1.88;;;19.70;67.70;;;;;;4994169;28;20031;-60
2021/09/17 02:34:21;;;;;;;3.88;1.88;;;19.70;67.70;;;;;;4994069;28;20034;-59
2021/09/17 02:36:47;;;;;;;2.90;1.40;;;19.70;67.60;;;;;;4994270;28;20081;-60
2021/09/17 02:39:14;;;;;;;3.25;1.75;;;19.70;67.70;;;;;;4994080;28;20030;-59
2021/09/17 02:41:39;;;;;;;4.32;1.90;;;19.70;67.70;;;;;;4994215;28;20113;-59
2021/09/17 02:44:05;;;;;;;3.13;1.30;;;19.70;67.70;;;;;;4993866;28;20514;-60
2021/09/17 02:46:30;;;;;;;3.90;1.77;;;19.70;67.70;;;;;;4993853;28;20084;-59
2021/09/17 02:48:56;;;;;;;4.05;1.85;;;19.70;67.70;;;;;;4992628;28;20034;-60
2021/09/17 02:51:21;;;;;;;3.65;1.77;;;19.70;67.70;;;;;;4994017;28;20105;-60
2021/09/17 02:53:47;;;;;;;4.53;2.00;;;19.70;67.60;;;;;;4993766;28;20026;-59
2021/09/17 02:56:12;;;;;;;3.28;1.60;;;19.70;67.70;;;;;;4993686;28;20110;-59
2021/09/17 02:58:38;;;;;;;3.95;1.98;;;19.70;67.70;;;;;;4993631;28;20105;-60
2021/09/17 03:01:04;;;;;;;3.60;1.98;;;19.70;67.70;;;;;;4993709;28;20128;-59
2021/09/17 03:03:30;;;;;;;3.67;1.77;;;19.70;67.70;;;;;;4993629;28;20030;-59
2021/09/17 03:05:55;;;;;;;3.63;1.70;;;19.70;67.70;;;;;;4993769;28;20027;-59
2021/09/17 03:08:21;;;;;;;4.55;1.85;;;19.70;67.70;;;;;;4994049;28;20459;-60
2021/09/17 03:10:46;;;;;;;4.63;2.10;;;19.70;67.70;;;;;;4993543;28;20086;-61
2021/09/17 03:13:12;;;;;;;3.72;1.63;;;19.70;67.70;;;;;;4993479;28;20073;-62
2021/09/17 03:15:38;;;;;;;3.85;1.80;;;19.70;67.70;;;;;;4993594;28;20037;-61
2021/09/17 03:18:04;;;;;;;4.45;2.00;;;19.70;67.70;;;;;;4993704;28;20030;-60
2021/09/17 03:20:29;;;;;;;3.65;1.77;;;19.70;67.70;;;;;;4993728;28;20413;-59
2021/09/17 03:22:55;;;;;;;4.32;1.90;;;19.70;67.60;;;;;;4992187;28;20033;-61
2021/09/17 03:25:20;;;;;;;3.35;1.70;;;19.70;67.70;;;;;;4992361;28;20389;-61
2021/09/17 03:27:46;;;;;;;4.30;1.98;;;19.70;67.60;;;;;;4993418;28;20023;-60
2021/09/17 03:30:12;;;;;;;3.60;1.88;;;19.70;67.70;;;;;;4994665;28;20113;-63
2021/09/17 03:32:38;;;;;;;3.85;1.88;;;19.70;67.60;;;;;;4997717;28;20463;-61
2021/09/17 03:35:04;;;;;;;3.65;1.90;;;19.70;67.70;;;;;;4996138;28;20390;-61
2021/09/17 03:37:29;;;;;;;3.72;1.70;;;19.70;67.70;;;;;;4997267;28;20042;-61
2021/09/17 03:39:55;;;;;;;3.83;1.75;;;19.70;67.70;;;;;;4997404;28;20434;-60
2021/09/17 03:42:20;;;;;;;3.67;1.83;;;19.70;67.70;;;;;;4997201;28;20161;-61
2021/09/17 03:44:46;;;;;;;3.75;1.85;;;19.70;67.70;;;;;;4997230;28;20381;-60
2021/09/17 03:47:11;;;;;;;3.92;2.00;;;19.70;67.70;;;;;;4997190;28;20524;-60
2021/09/17 03:49:37;;;;;;;4.32;1.98;;;19.70;67.70;;;;;;4997177;28;20023;-61
2021/09/17 03:52:02;;;;;;;3.78;1.92;;;19.70;67.70;;;;;;4997211;28;20049;-61
2021/09/17 03:54:28;;;;;;;3.25;1.52;;;19.60;67.60;;;;;;4997037;28;20026;-60
2021/09/17 03:56:59;;;;;;;3.72;1.67;;;19.70;67.60;;;;;;4996868;28;20049;-60
2021/09/17 03:59:24;;;;;;;3.97;1.92;;;19.60;67.70;;;;;;4997304;28;20382;-60
2021/09/17 04:01:50;;;;;;;4.55;2.30;;;19.70;67.70;;;;;;4996898;28;20026;-61
2021/09/17 04:04:16;;;;;;;4.30;1.75;;;19.70;67.70;;;;;;4979376;28;20061;-61
2021/09/17 04:06:45;;;;;;;3.63;1.80;;;19.60;67.70;;;;;;4996849;28;20034;-60
2021/09/17 04:09:11;;;;;;;3.80;1.70;;;19.70;67.60;;;;;;4997128;28;20061;-60
2021/09/17 04:11:37;;;;;;;2.75;1.65;;;19.60;67.70;;;;;;4996666;28;20382;-59
2021/09/17 04:14:03;;;;;;;3.95;1.73;;;19.70;67.60;;;;;;4995530;28;20437;-62
2021/09/17 04:16:28;;;;;;;3.47;1.60;;;19.60;67.60;;;;;;4995434;28;20057;-61
2021/09/17 04:18:54;;;;;;;3.53;1.88;;;19.60;67.60;;;;;;4996608;28;20462;-59
2021/09/17 04:21:19;;;;;;;3.25;1.75;;;19.60;67.60;;;;;;4996557;28;20046;-60
2021/09/17 04:23:45;;;;;;;3.63;1.67;;;19.60;67.70;;;;;;4996516;28;20054;-59
2021/09/17 04:26:10;;;;;;;3.53;1.77;;;19.60;67.60;;;;;;4996445;28;20109;-58
2021/09/17 04:28:36;;;;;;;4.20;2.05;;;19.70;67.60;;;;;;4996559;28;20022;-61
2021/09/17 04:31:02;;;;;;;3.75;1.95;;;19.70;67.60;;;;;;4996467;28;20030;-61
2021/09/17 04:33:27;;;;;;;4.90;2.10;;;19.60;67.70;;;;;;4995255;28;20026;-61
2021/09/17 04:35:53;;;;;;;4.40;2.00;;;19.60;67.70;;;;;;4996570;28;20481;-61
2021/09/17 04:38:18;;;;;;;4.57;2.17;;;19.60;67.70;;;;;;4996283;28;20035;-60
2021/09/17 04:40:44;;;;;;;3.45;1.83;;;19.60;67.70;;;;;;4995870;28;20072;-60
2021/09/17 04:43:10;;;;;;;4.55;2.00;;;19.60;67.70;;;;;;4996100;28;20030;-61
2021/09/17 04:45:37;;;;;;;5.03;1.95;;;19.60;67.60;;;;;;4996100;28;20458;-60
2021/09/17 04:48:13;;;;;;;4.90;2.22;;;19.60;67.60;;;;;;4995876;28;20141;-60
2021/09/17 04:50:39;;;;;;;4.72;2.10;;;19.60;67.70;;;;;;4994941;28;20049;-61
2021/09/17 04:53:06;;;;;;;3.78;2.00;;;19.60;67.60;;;;;;4994804;28;20136;-61
2021/09/17 04:55:31;;;;;;;4.32;1.77;;;19.60;67.70;;;;;;4995922;28;20033;-61
2021/09/17 04:58:01;;;;;;;4.40;2.10;;;19.60;67.70;;;;;;4995889;28;20022;-60
2021/09/17 05:00:26;;;;;;;6.05;2.45;;;19.60;67.70;;;;;;4996029;28;20080;-61
2021/09/17 05:02:52;;;;;;;4.57;1.90;;;19.60;67.60;;;;;;4995816;28;20030;-61
2021/09/17 05:05:17;;;;;;;4.45;2.30;;;19.60;67.60;;;;;;4995791;28;20023;-59
2021/09/17 05:07:43;;;;;;;4.07;1.98;;;19.70;67.70;;;;;;4995945;28;20062;-62
2021/09/17 05:10:09;;;;;;;4.45;2.40;;;19.60;67.70;;;;;;4995921;28;20029;-60
2021/09/17 05:12:35;;;;;;;4.45;2.00;;;19.60;67.70;;;;;;4995685;28;20058;-60
2021/09/17 05:15:00;;;;;;;4.30;2.10;;;19.60;67.70;;;;;;4995534;28;20049;-60
2021/09/17 05:17:26;;;;;;;4.75;2.17;;;19.60;67.70;;;;;;4995550;28;20038;-60
2021/09/17 05:19:51;;;;;;;4.22;1.98;;;19.60;67.70;;;;;;4994079;28;20113;-60
2021/09/17 05:22:17;;;;;;;4.50;2.05;;;19.60;67.70;;;;;;4994117;28;20470;-60
2021/09/17 05:24:42;;;;;;;6.43;1.90;;;19.60;67.70;;;;;;4995384;28;20029;-60
2021/09/17 05:27:14;;;;;;;3.55;1.77;;;19.60;67.70;;;;;;4995665;28;20030;-59
2021/09/17 05:29:40;;;;;;;4.28;2.15;;;19.60;67.70;;;;;;4995342;28;20551;-59
2021/09/17 05:32:06;;;;;;;4.93;2.28;;;19.60;67.70;;;;;;4995415;28;20031;-59
2021/09/17 05:34:31;;;;;;;4.63;2.30;;;19.60;67.70;;;;;;4993893;28;20525;-59
2021/09/17 05:36:57;;;;;;;4.75;2.15;;;19.60;67.70;;;;;;4994995;28;20041;-59
2021/09/17 05:39:22;;;;;;;5.10;2.45;;;19.60;67.70;;;;;;4995146;28;20022;-60
2021/09/17 05:41:49;;;;;;;5.03;2.22;;;19.60;67.70;;;;;;4995092;28;20023;-59
2021/09/17 05:44:14;;;;;;;3.40;1.90;;;19.60;67.70;;;;;;4994071;28;20033;-59
2021/09/17 05:46:40;;;;;;;5.13;2.53;;;19.60;67.70;;;;;;4994859;28;20058;-60
2021/09/17 05:49:05;;;;;;;4.80;2.20;;;19.60;67.70;;;;;;4995028;28;20038;-60
2021/09/17 05:51:31;;;;;;;4.10;2.10;;;19.60;67.70;;;;;;4994852;28;20097;-60
2021/09/17 05:53:56;;;;;;;4.10;2.05;;;19.60;67.70;;;;;;4994100;28;20097;-60
2021/09/17 05:56:22;;;;;;;4.95;2.20;;;19.60;67.70;;;;;;4994883;28;20466;-59
2021/09/17 05:58:47;;;;;;;4.63;2.28;;;19.60;67.60;;;;;;4994821;28;20034;-60
2021/09/17 06:01:13;;;;;;;5.30;2.28;;;19.60;67.60;;;;;;4994994;28;20045;-61
2021/09/17 06:03:41;;;;;;;4.68;2.13;;;19.60;67.60;;;;;;4993463;28;20032;-60
2021/09/17 06:06:07;;;;;;;4.03;2.10;;;19.60;67.60;;;;;;4993434;28;20037;-61
2021/09/17 06:08:33;;;;;;;4.15;2.40;;;19.60;67.60;;;;;;4994471;28;20029;-60
2021/09/17 06:10:58;;;;;;;3.53;1.95;;;19.60;67.70;;;;;;4994441;28;20026;-59
2021/09/17 06:13:24;;;;;;;6.57;2.53;;;19.60;67.60;;;;;;4994455;28;20127;-61
2021/09/17 06:15:49;;;;;;;4.60;2.20;;;19.60;67.60;;;;;;4994370;28;20034;-60
2021/09/17 06:18:15;;;;;;;3.85;2.00;;;19.60;67.60;;;;;;4994376;28;20081;-62
2021/09/17 06:20:40;;;;;;;4.57;2.20;;;19.60;67.60;;;;;;4994256;28;20086;-60
2021/09/17 06:23:06;;;;;;;4.10;2.15;;;19.60;67.60;;;;;;4994262;28;20088;-59
2021/09/17 06:25:31;;;;;;;4.72;1.88;;;19.60;67.60;;;;;;4992942;28;20531;-59
2021/09/17 06:27:57;;;;;;;5.35;2.50;;;19.60;67.60;;;;;;4994452;28;20045;-59
2021/09/17 06:30:23;;;;;;;4.30;1.92;;;19.60;67.60;;;;;;4993816;28;20437;-59
2021/09/17 06:32:49;;;;;;;4.55;2.00;;;19.60;67.60;;;;;;4994097;28;20034;-60
2021/09/17 06:35:14;;;;;;;5.22;2.60;;;19.60;67.60;;;;;;4993899;28;20026;-59
2021/09/17 06:37:45;;;;;;;4.82;2.42;;;19.70;67.60;;;;;;4993787;28;20038;-60
2021/09/17 06:40:11;;;;;;;3.97;1.98;;;19.60;67.50;;;;;;4993990;28;20050;-59
2021/09/17 06:42:36;;;;;;;5.97;2.13;;;19.60;67.50;;;;;;4993994;28;20022;-60
2021/09/17 06:45:02;;;;;;;4.82;2.00;;;19.70;67.40;;;;;;4992573;28;20025;-61
2021/09/17 06:47:28;;;;;;;4.30;2.30;;;19.70;67.50;;;;;;4993636;28;20046;-59
2021/09/17 06:49:54;;;;;;;5.00;2.50;;;19.70;67.40;;;;;;4993803;28;20060;-60
2021/09/17 06:52:19;;;;;;;4.13;2.25;;;19.70;67.40;;;;;;4993787;28;20038;-60
2021/09/17 06:54:45;;;;;;;4.55;2.20;;;19.70;67.50;;;;;;4993831;28;20022;-60
2021/09/17 06:57:11;;;;;;;4.25;2.08;;;19.70;67.50;;;;;;4993875;28;20026;-59
2021/09/17 06:59:42;;;;;;;4.00;2.22;;;19.70;67.40;;;;;;4992367;28;20022;-59
2021/09/17 07:02:09;;;;;;;5.43;2.17;;;19.70;67.40;;;;;;4993698;28;20026;-60
2021/09/17 07:04:34;;;;;;;3.90;2.08;;;19.80;67.30;;;;;;4993521;28;20018;-60
2021/09/17 07:07:00;;;;;;;4.65;2.38;;;19.70;67.30;;;;;;4993545;28;20117;-60
2021/09/17 07:09:25;;;;;;;5.82;2.42;;;19.70;67.30;;;;;;4992404;28;20524;-61
2021/09/17 07:11:51;;;;;;;3.70;2.00;;;19.70;67.20;;;;;;4993579;28;20058;-59
2021/09/17 07:14:16;;;;;;;4.65;2.60;;;19.80;67.30;;;;;;4993447;28;20033;-60
2021/09/17 07:16:42;;;;;;;5.03;2.50;;;19.70;67.20;;;;;;4993373;28;20035;-59
2021/09/17 07:19:08;;;;;;;4.07;2.30;;;19.80;67.20;;;;;;4993360;28;20030;-60
2021/09/17 07:21:34;;;;;;;6.30;3.03;;;19.80;67.20;;;;;;4993493;28;20544;-61
2021/09/17 07:23:59;;;;;;;5.95;2.88;;;19.70;67.20;;;;;;4993538;28;20485;-61
2021/09/17 07:26:25;;;;;;;4.88;2.33;;;19.80;67.10;;;;;;4993303;28;20069;-60
2021/09/17 07:28:50;;;;;;;5.43;2.47;;;19.80;67.10;;;;;;4993255;28;20057;-60
2021/09/17 07:31:16;;;;;;;5.35;2.80;;;19.80;67.10;;;;;;4993405;28;20054;-59
2021/09/17 07:33:41;;;;;;;5.40;2.50;;;19.80;67.10;;;;;;4993228;28;20441;-60
2021/09/17 07:36:07;;;;;;;8.25;2.60;;;19.80;67.10;;;;;;4993115;28;20034;-59
2021/09/17 07:38:33;;;;;;;5.82;2.83;;;19.80;67.10;;;;;;4993219;28;20484;-61
2021/09/17 07:40:58;;;;;;;9.32;2.60;;;19.80;67.10;;;;;;4993349;28;20442;-62
2021/09/17 07:43:24;;;;;;;5.32;2.80;;;19.90;67.10;;;;;;4993504;28;20185;-61
2021/09/17 07:45:49;;;;;;;4.80;2.40;;;19.80;67.10;;;;;;4993323;28;20037;-60
2021/09/17 07:48:15;;;;;;;5.30;2.20;;;19.90;67.00;;;;;;4992933;28;20057;-60
2021/09/17 07:50:40;;;;;;;5.13;2.53;;;19.90;67.00;;;;;;4993183;28;20442;-60
2021/09/17 07:53:06;;;;;;;4.90;2.40;;;19.80;67.00;;;;;;4993223;28;20024;-61
2021/09/17 07:55:34;;;;;;;4.35;2.40;;;19.90;67.00;;;;;;4993124;28;20041;-62
2021/09/17 07:58:00;;;;;;;4.13;2.38;;;19.90;66.90;;;;;;4993184;28;20036;-62
2021/09/17 08:00:26;;;;;;;4.75;2.25;;;19.90;66.90;;;;;;4993095;28;20022;-60
2021/09/17 08:02:51;;;;;;;4.18;2.08;;;19.90;66.80;;;;;;4992888;28;20537;-61
2021/09/17 08:05:17;;;;;;;5.30;2.45;;;20.00;66.70;;;;;;4993225;28;20026;-61
2021/09/17 08:07:43;;;;;;;5.85;2.00;;;20.00;66.70;;;;;;4993112;28;20027;-59
2021/09/17 08:10:09;;;;;;;4.72;2.08;;;19.90;66.80;;;;;;4993029;28;20050;-60
2021/09/17 08:12:35;;;;;;;4.20;2.15;;;20.00;66.70;;;;;;4992959;28;20034;-61
2021/09/17 08:15:00;;;;;;;5.00;2.30;;;19.90;66.80;;;;;;4991577;28;20033;-59
2021/09/17 08:17:26;;;;;;;4.57;2.30;;;19.90;66.80;;;;;;4995502;28;20045;-60
2021/09/17 08:19:51;;;;;;;4.20;2.08;;;19.90;66.80;;;;;;4996456;28;20023;-60
2021/09/17 08:22:17;;;;;;;4.60;1.98;;;20.00;66.80;;;;;;4995267;28;20030;-60
2021/09/17 08:24:42;;;;;;;5.10;2.25;;;20.00;66.60;;;;;;4996395;28;20036;-60
2021/09/17 08:27:08;;;;;;;4.75;2.08;;;20.00;66.60;;;;;;4996449;28;20429;-62
2021/09/17 08:29:34;;;;;;;4.68;2.42;;;20.00;66.60;;;;;;4996386;28;20038;-60
2021/09/17 08:31:59;;;;;;;4.07;2.00;;;20.00;66.50;;;;;;4996247;28;20477;-59
2021/09/17 08:34:25;;;;;;;3.92;2.10;;;20.00;66.40;;;;;;4996250;28;20110;-59
2021/09/17 08:36:51;;;;;;;5.32;2.67;;;20.10;66.30;;;;;;4996173;28;20038;-59
2021/09/17 08:39:17;;;;;;;4.25;1.98;;;20.00;66.30;;;;;;4996105;28;20033;-59
2021/09/17 08:41:44;;;;;;;5.50;2.55;;;20.00;66.40;;;;;;4994893;28;20030;-60
2021/09/17 08:44:10;;;;;;;5.03;2.20;;;20.00;66.50;;;;;;4996089;28;20026;-59
2021/09/17 08:46:41;;;;;;;4.53;2.20;;;20.00;66.50;;;;;;4995964;28;20034;-59
2021/09/17 08:49:07;;;;;;;5.00;2.50;;;20.00;66.60;;;;;;4995898;28;20034;-59
2021/09/17 08:51:33;;;;;;;4.20;2.03;;;20.00;66.60;;;;;;4996259;28;20034;-60
2021/09/17 08:54:01;;;;;;;4.10;2.38;;;20.00;66.50;;;;;;4994727;28;20034;-60
2021/09/17 08:56:27;;;;;;;4.45;2.20;;;20.00;66.60;;;;;;4995794;28;20034;-60
2021/09/17 08:58:52;;;;;;;5.85;2.08;;;20.10;66.50;;;;;;4995856;28;20031;-61
2021/09/17 09:01:30;;;;;;;4.15;1.95;;;20.10;66.50;;;;;;4995675;28;20026;-61
2021/09/17 09:03:59;;;;;;;3.75;2.15;;;20.10;66.50;;;;;;4995819;28;20022;-58
2021/09/17 09:06:26;;;;;;;3.80;2.15;;;20.10;66.50;;;;;;4995656;28;20519;-59
2021/09/17 09:08:51;;;;;;;5.75;2.42;;;20.10;66.30;;;;;;4995728;28;20117;-59
2021/09/17 09:11:19;;;;;;;4.35;2.22;;;20.10;66.30;;;;;;4995730;28;20128;-60
2021/09/17 09:13:57;;;;;;;4.13;2.20;;;20.10;66.40;;;;;;4995475;28;20022;-60
2021/09/17 09:16:23;;;;;;;3.50;1.80;;;20.10;66.40;;;;;;4995279;28;20057;-59
2021/09/17 09:18:48;;;;;;;4.40;2.22;;;20.20;66.30;;;;;;4995366;28;20334;-61
2021/09/17 09:21:30;;;;;;;3.58;1.90;;;20.20;66.30;;;;;;4995224;28;20386;-61
2021/09/17 09:24:17;;;;;;;4.85;2.25;;;20.20;66.30;;;;;;4993957;28;20053;-61
2021/09/17 09:26:46;;;;;;;4.55;2.35;;;20.20;66.30;;;;;;4994875;28;20083;-60
2021/09/17 09:29:25;;;;;;;4.38;2.30;;;20.20;66.20;;;;;;4994049;28;20022;-61
2021/09/17 09:31:51;;;;;;;3.97;1.98;;;20.30;66.30;;;;;;4995073;28;20062;-60
2021/09/17 09:34:16;;;;;;;3.70;2.08;;;20.20;66.30;;;;;;4995112;28;20057;-60
2021/09/17 09:36:42;;;;;;;4.10;2.10;;;20.30;66.20;;;;;;4995037;28;20542;-60
2021/09/17 09:39:08;;;;;;;4.32;1.98;;;20.30;66.20;;;;;;4995004;28;20018;-60
2021/09/17 09:41:35;;;;;;;4.57;1.90;;;20.30;66.20;;;;;;4995093;28;20030;-60
2021/09/17 09:44:19;;;;;;;4.38;1.95;;;20.30;66.20;;;;;;4994831;28;20030;-61
2021/09/17 09:46:45;;;;;;;4.70;2.10;;;20.30;66.20;;;;;;4994715;28;20042;-59
2021/09/17 09:49:14;;;;;;;3.88;2.00;;;20.30;66.10;;;;;;4994726;28;20061;-59
2021/09/17 09:51:52;;;;;;;4.68;2.22;;;20.30;66.10;;;;;;4994786;28;20110;-59
2021/09/17 09:54:18;;;;;;;4.68;1.95;;;20.30;66.20;;;;;;4993595;28;20019;-60
2021/09/17 09:56:43;;;;;;;4.25;2.28;;;20.30;66.20;;;;;;4994891;28;20090;-60
2021/09/17 09:59:09;;;;;;;4.43;2.15;;;20.30;66.20;;;;;;4977448;28;20033;-60
2021/09/17 10:01:37;;;;;;;4.90;2.35;;;20.30;66.20;;;;;;4994657;28;20030;-59
2021/09/17 10:04:03;;;;;;;5.00;2.05;;;20.30;66.20;;;;;;4994696;28;20034;-61
2021/09/17 10:06:33;;;;;;;3.75;1.77;;;20.30;66.10;;;;;;4994784;28;20030;-60
2021/09/17 10:08:59;;;;;;;4.35;1.80;;;20.30;66.20;;;;;;4994533;28;20026;-61
2021/09/17 10:11:25;;;;;;;4.50;2.17;;;20.30;66.20;;;;;;4994467;28;20032;-61
2021/09/17 10:13:54;;;;;;;3.92;2.17;;;20.30;66.20;;;;;;4994601;28;20030;-61
2021/09/17 10:16:22;;;;;;;4.20;2.17;;;20.40;66.10;;;;;;4993046;28;20042;-60
2021/09/17 10:18:47;;;;;;;4.13;2.03;;;20.30;66.10;;;;;;4994534;28;20094;-59
2021/09/17 10:21:13;;;;;;;4.78;2.20;;;20.30;66.20;;;;;;4994059;28;20050;-59
2021/09/17 10:23:44;;;;;;;5.53;2.10;;;20.40;66.20;;;;;;4994150;28;20368;-60
2021/09/17 10:26:12;;;;;;;4.03;2.20;;;20.40;66.20;;;;;;4994116;28;20154;-59
2021/09/17 10:29:05;;;;;;;4.30;2.20;;;20.30;66.20;;;;;;4993996;28;20177;-61
2021/09/17 10:31:45;;;;;;;4.13;2.20;;;20.30;66.10;;;;;;4994014;28;20022;-61
2021/09/17 10:34:31;;;;;;;4.15;2.05;;;20.40;66.20;;;;;;4994203;28;20114;-60
2021/09/17 10:36:57;;;;;;;4.43;2.40;;;20.40;66.20;;;;;;4993951;28;20113;-60
2021/09/17 10:39:23;;;;;;;4.15;2.10;;;20.40;66.20;;;;;;4993649;28;20058;-60
2021/09/17 10:42:12;;;;;;;5.05;2.25;;;20.30;66.20;;;;;;4993901;28;20109;-60
2021/09/17 10:45:02;;;;;;;5.35;2.20;;;20.40;66.20;;;;;;4993902;28;20101;-60
2021/09/17 10:47:39;;;;;;;5.90;2.58;;;20.40;66.20;;;;;;4993538;28;20038;-61
2021/09/17 10:50:07;;;;;;;4.38;2.20;;;20.40;66.20;;;;;;4993586;28;20022;-60
2021/09/17 10:52:42;;;;;;;4.38;2.08;;;20.40;66.10;;;;;;4993722;28;20034;-59
2021/09/17 10:55:08;;;;;;;2.92;1.80;;;20.40;66.10;;;;;;4993548;28;20496;-59
2021/09/17 10:58:12;;;;;;;3.17;1.70;;;20.40;66.10;;;;;;4992370;28;20039;-59
2021/09/17 11:01:01;;;;;;;3.85;2.00;;;20.40;66.10;;;;;;4993662;28;20050;-60
2021/09/17 11:03:36;;;;;;;3.97;1.90;;;20.40;66.10;;;;;;4993617;28;20028;-60
2021/09/17 11:06:37;;;;;;;3.30;1.70;;;20.40;66.10;;;;;;4993501;28;20106;-60
2021/09/17 11:09:07;;;;;;;4.10;1.90;;;20.40;66.00;;;;;;4952619;29;20028;-60
2021/09/17 11:11:40;;;;;;;4.68;1.88;;;20.50;66.00;;;;;;4986138;28;20030;-60
2021/09/17 11:14:17;;;;;;;5.47;1.95;;;20.50;66.00;;;;;;4993528;28;20031;-60
2021/09/17 11:16:46;;;;;;;3.85;1.90;;;20.50;65.90;;;;;;4993172;28;20034;-59
2021/09/17 11:19:19;;;;;;;3.33;1.77;;;20.50;65.90;;;;;;4993326;28;20026;-59
2021/09/17 11:21:50;;;;;;;4.18;1.90;;;20.50;65.80;;;;;;4993442;28;20030;-61
2021/09/17 11:24:20;;;;;;;4.53;2.10;;;20.50;65.80;;;;;;4993463;28;20085;-62
2021/09/17 11:26:48;;;;;;;3.33;1.42;;;20.50;65.80;;;;;;4993351;28;20121;-60
2021/09/17 11:29:16;;;;;;;4.53;2.30;;;20.50;65.80;;;;;;4993358;28;20061;-60
2021/09/17 11:31:46;;;;;;;3.10;1.80;;;20.50;65.80;;;;;;4993501;28;20030;-62
2021/09/17 11:34:15;;;;;;;3.17;1.73;;;20.50;65.80;;;;;;4993551;28;20105;-61
2021/09/17 11:36:46;;;;;;;5.25;2.28;;;20.60;65.70;;;;;;4991899;28;20445;-60
2021/09/17 11:39:20;;;;;;;3.88;1.70;;;20.60;65.70;;;;;;4993118;28;20026;-62
2021/09/17 11:41:50;;;;;;;4.03;1.95;;;20.60;65.70;;;;;;4993485;28;20073;-61
2021/09/17 11:44:38;;;;;;;3.88;2.00;;;20.60;65.70;;;;;;4993251;28;20053;-61
2021/09/17 11:47:19;;;;;;;3.58;1.95;;;20.60;65.60;;;;;;4993222;28;20429;-62
2021/09/17 11:49:46;;;;;;;3.75;2.00;;;20.70;65.40;;;;;;4993150;28;20529;-61
2021/09/17 11:52:14;;;;;;;4.38;1.75;;;20.70;65.60;;;;;;4995488;28;20386;-62
2021/09/17 11:54:40;;;;;;;3.67;1.80;;;20.70;65.60;;;;;;4995742;28;20018;-60
2021/09/17 11:57:07;;;;;;;4.40;2.13;;;20.70;65.60;;;;;;4996729;28;20035;-60
2021/09/17 11:59:35;;;;;;;3.83;1.98;;;20.80;65.40;;;;;;4996939;28;20445;-61
2021/09/17 12:02:20;;;;;;;3.90;1.90;;;21.00;64.80;;;;;;4996877;28;20441;-60
2021/09/17 12:04:54;;;;;;;3.03;1.58;;;21.00;64.70;;;;;;4996966;28;20037;-60
2021/09/17 12:07:20;;;;;;;4.55;2.47;;;20.90;64.80;;;;;;4996800;28;20406;-59
2021/09/17 12:09:46;;;;;;;3.72;1.80;;;20.90;65.00;;;;;;4996799;28;20034;-61
2021/09/17 12:12:12;;;;;;;2.72;1.70;;;20.90;65.10;;;;;;4996790;28;20030;-60
2021/09/17 12:14:47;;;;;;;3.35;1.67;;;20.90;65.10;;;;;;4996792;28;20029;-60
2021/09/17 12:17:12;;;;;;;3.38;1.85;;;20.90;65.10;;;;;;4996511;28;20049;-61
2021/09/17 12:20:03;;;;;;;2.47;1.52;;;20.90;65.10;;;;;;4996584;28;20028;-60
2021/09/17 12:22:33;;;;;;;3.08;1.60;;;20.90;65.20;;;;;;4996513;28;20421;-61
2021/09/17 12:25:11;;;;;;;4.38;1.63;;;20.80;65.20;;;;;;4996554;28;20080;-60
2021/09/17 12:27:40;;;;;;;3.17;1.67;;;20.80;65.20;;;;;;4996389;28;20054;-60
2021/09/17 12:30:12;;;;;;;2.55;1.38;;;20.80;65.30;;;;;;4996369;28;20014;-60
2021/09/17 12:32:39;;;;;;;3.70;1.83;;;20.80;65.30;;;;;;4996630;28;20034;-60
2021/09/17 12:35:15;;;;;;;3.55;1.88;;;20.90;65.20;;;;;;4996310;28;20026;-60
2021/09/17 12:37:52;;;;;;;4.60;2.00;;;20.90;65.30;;;;;;4996201;28;20037;-61
2021/09/17 12:40:20;;;;;;;3.83;1.80;;;20.90;65.10;;;;;;4996070;28;20113;-61
2021/09/17 12:42:59;;;;;;;2.72;1.58;;;21.00;65.00;;;;;;4995999;28;20026;-61
2021/09/17 12:45:25;;;;;;;4.03;2.22;;;21.00;65.00;;;;;;4996067;28;20378;-60
2021/09/17 12:47:54;;;;;;;2.97;1.55;;;21.00;64.90;;;;;;4995982;28;20054;-58
2021/09/17 12:50:31;;;;;;;3.10;1.67;;;21.00;64.80;;;;;;4995795;28;20022;-59